Time;durP1;ratioP1;P1;durP2;ratioP2;P2;SDS_P1;SDS_P2;PMS_P1;PMS_P2;Temp;Humidity;BMP_temperature;BMP_pressure;BME280_temperature;BME280_humidity;BME280_pressure;Samples;Min_cycle;Max_cycle;Signal;HPM_P1;HPM_P2
2021/11/05 00:02:33;;;;;;;3.03;1.60;;;7.30;99.90;;;;;;5252819;28;20239;-68
2021/11/05 00:05:05;;;;;;;1.77;1.17;;;7.20;99.90;;;;;;5251229;28;20215;-68
2021/11/05 00:07:38;;;;;;;2.13;1.50;;;7.20;99.90;;;;;;5252901;28;20233;-67
2021/11/05 00:10:13;;;;;;;1.40;1.30;;;7.10;99.90;;;;;;5253460;28;20212;-68
2021/11/05 00:12:48;;;;;;;2.23;1.43;;;7.10;99.90;;;;;;5251275;28;20236;-69
2021/11/05 00:15:20;;;;;;;1.73;1.60;;;7.10;99.90;;;;;;5252332;28;20223;-70
2021/11/05 00:17:52;;;;;;;3.90;1.57;;;7.10;99.90;;;;;;5252212;28;20251;-73
2021/11/05 00:20:24;;;;;;;1.90;1.43;;;7.10;99.90;;;;;;5251020;28;20208;-69
2021/11/05 00:22:57;;;;;;;1.87;1.47;;;7.00;99.90;;;;;;5252235;28;20224;-72
2021/11/05 00:25:29;;;;;;;2.30;1.70;;;7.00;99.90;;;;;;5234290;28;20215;-71
2021/11/05 00:28:03;;;;;;;2.03;1.83;;;7.00;99.90;;;;;;5251770;28;20245;-69
2021/11/05 00:30:41;;;;;;;1.83;1.67;;;7.00;99.90;;;;;;5267549;28;20213;-70
2021/11/05 00:33:16;;;;;;;2.13;1.70;;;7.00;99.90;;;;;;5251163;28;20523;-70
2021/11/05 00:35:50;;;;;;;2.47;1.80;;;7.00;99.90;;;;;;5251928;28;20200;-72
2021/11/05 00:38:24;;;;;;;1.80;1.70;;;7.00;99.90;;;;;;5251812;28;20505;-68
2021/11/05 00:40:56;;;;;;;3.87;2.20;;;7.00;99.90;;;;;;5252390;28;20552;-69
2021/11/05 00:43:28;;;;;;;3.40;2.03;;;7.00;99.90;;;;;;5254154;28;20232;-69
2021/11/05 00:46:03;;;;;;;2.10;1.90;;;7.00;99.90;;;;;;5234829;28;20215;-69
2021/11/05 00:48:34;;;;;;;7.10;2.20;;;7.00;99.90;;;;;;5233747;28;20231;-69
2021/11/05 00:51:07;;;;;;;3.13;2.00;;;7.00;99.90;;;;;;5251620;28;20512;-69
2021/11/05 00:53:39;;;;;;;2.87;2.07;;;7.00;99.90;;;;;;5233461;28;20229;-69
2021/11/05 00:56:15;;;;;;;3.43;2.00;;;7.00;99.90;;;;;;5233888;28;20216;-69
2021/11/05 00:58:47;;;;;;;6.23;2.07;;;7.00;99.90;;;;;;5233623;28;20243;-71
2021/11/05 01:01:20;;;;;;;2.50;1.80;;;7.00;99.90;;;;;;5233592;28;20197;-70
2021/11/05 01:03:52;;;;;;;2.67;1.87;;;7.00;99.90;;;;;;5250219;28;20518;-69
2021/11/05 01:06:24;;;;;;;2.50;1.70;;;7.00;99.90;;;;;;5251135;28;20546;-69
2021/11/05 01:08:58;;;;;;;1.70;1.60;;;7.00;99.90;;;;;;5251141;28;20228;-70
2021/11/05 01:11:32;;;;;;;1.87;1.77;;;7.00;99.90;;;;;;5251348;28;20227;-69
2021/11/05 01:14:05;;;;;;;1.70;1.60;;;7.00;99.90;;;;;;5233358;28;20239;-71
2021/11/05 01:16:37;;;;;;;2.07;1.60;;;7.00;99.90;;;;;;5252215;28;20216;-70
2021/11/05 01:19:09;;;;;;;2.40;1.40;;;7.00;99.90;;;;;;5253844;28;20527;-71
2021/11/05 01:21:41;;;;;;;1.60;1.37;;;7.00;99.90;;;;;;5253882;28;20207;-70
2021/11/05 01:24:17;;;;;;;1.40;1.30;;;7.00;99.90;;;;;;5250982;28;20235;-70
2021/11/05 01:26:50;;;;;;;2.00;1.80;;;7.00;99.90;;;;;;5251655;28;20203;-71
2021/11/05 01:29:24;;;;;;;1.77;1.33;;;7.00;99.90;;;;;;5250405;28;20254;-71
2021/11/05 01:31:59;;;;;;;1.27;1.17;;;7.10;99.90;;;;;;5250745;28;20185;-69
2021/11/05 01:34:31;;;;;;;3.17;1.40;;;7.10;99.90;;;;;;5200787;28;20358;-70
2021/11/05 01:37:05;;;;;;;1.10;1.00;;;7.10;99.90;;;;;;5233326;28;20197;-69
2021/11/05 01:39:37;;;;;;;4.03;1.00;;;7.10;99.90;;;;;;5233228;28;20232;-73
2021/11/05 01:42:09;;;;;;;1.40;1.10;;;7.10;99.90;;;;;;5250980;28;20216;-70
2021/11/05 01:44:41;;;;;;;1.07;0.90;;;7.10;99.90;;;;;;5250565;28;20229;-69
2021/11/05 01:47:18;;;;;;;0.80;0.80;;;7.10;99.90;;;;;;5250644;28;20212;-69
2021/11/05 01:49:50;;;;;;;1.27;0.87;;;7.10;99.90;;;;;;5250838;28;20228;-70
2021/11/05 01:52:24;;;;;;;2.03;0.80;;;7.20;99.90;;;;;;5233164;28;20208;-70
2021/11/05 01:54:56;;;;;;;0.90;0.80;;;7.20;99.90;;;;;;5234485;28;20562;-71
2021/11/05 01:57:30;;;;;;;0.63;0.63;;;7.10;99.90;;;;;;5250437;28;20300;-70
2021/11/05 02:00:05;;;;;;;0.83;0.60;;;7.20;99.90;;;;;;5249441;28;20242;-72
2021/11/05 02:02:38;;;;;;;1.23;0.67;;;7.20;99.90;;;;;;5250113;28;20207;-74
2021/11/05 02:05:16;;;;;;;0.50;0.50;;;7.20;99.90;;;;;;5249816;28;20221;-69
2021/11/05 02:07:54;;;;;;;1.53;0.50;;;7.20;99.90;;;;;;5250558;28;20536;-74
2021/11/05 02:10:27;;;;;;;1.20;0.67;;;7.30;99.90;;;;;;5249664;28;20247;-70
2021/11/05 02:13:02;;;;;;;0.43;0.43;;;7.30;99.90;;;;;;5215615;28;20204;-69
2021/11/05 02:15:34;;;;;;;2.13;0.70;;;7.30;99.90;;;;;;5232139;28;20239;-67
2021/11/05 02:18:07;;;;;;;0.43;0.40;;;7.30;99.90;;;;;;5249943;28;20620;-69
2021/11/05 02:20:40;;;;;;;0.60;0.50;;;7.30;99.90;;;;;;5265477;28;20228;-73
2021/11/05 02:23:13;;;;;;;0.80;0.50;;;7.30;99.90;;;;;;5232284;28;20232;-71
2021/11/05 02:25:47;;;;;;;2.90;0.60;;;7.30;99.90;;;;;;5249339;28;20232;-71
2021/11/05 02:28:20;;;;;;;0.80;0.60;;;7.30;99.90;;;;;;5250995;28;20239;-69
2021/11/05 02:30:52;;;;;;;1.00;0.77;;;7.40;99.90;;;;;;5249598;28;20346;-72
2021/11/05 02:33:24;;;;;;;0.83;0.60;;;7.40;99.90;;;;;;5249737;28;20201;-75
2021/11/05 02:35:56;;;;;;;0.50;0.50;;;7.40;99.90;;;;;;5264850;28;20228;-69
2021/11/05 02:38:31;;;;;;;0.50;0.40;;;7.40;99.90;;;;;;5265169;28;20691;-69
2021/11/05 02:41:03;;;;;;;1.70;0.50;;;7.40;99.90;;;;;;5249665;28;20228;-71
2021/11/05 02:43:36;;;;;;;0.67;0.50;;;7.40;99.90;;;;;;5249401;28;20200;-68
2021/11/05 02:46:08;;;;;;;0.70;0.60;;;7.40;99.90;;;;;;5232019;28;20216;-70
2021/11/05 02:48:40;;;;;;;0.50;0.43;;;7.40;99.90;;;;;;5265522;28;20185;-71
2021/11/05 02:51:12;;;;;;;1.60;0.60;;;7.40;99.90;;;;;;5231449;28;20204;-69
2021/11/05 02:53:44;;;;;;;1.53;0.40;;;7.40;99.90;;;;;;5249112;28;20208;-71
2021/11/05 02:56:19;;;;;;;2.30;0.50;;;7.40;99.90;;;;;;5231996;28;20504;-68
2021/11/05 02:58:52;;;;;;;1.43;0.50;;;7.30;99.90;;;;;;5249244;28;20216;-69
2021/11/05 03:01:29;;;;;;;0.93;0.50;;;7.30;99.90;;;;;;5249306;28;20205;-68
2021/11/05 03:04:07;;;;;;;0.87;0.40;;;7.30;99.90;;;;;;5249143;28;20271;-71
2021/11/05 03:06:41;;;;;;;1.60;0.50;;;7.30;99.90;;;;;;5249130;28;20220;-70
2021/11/05 03:09:16;;;;;;;0.60;0.50;;;7.30;99.90;;;;;;5249234;28;20599;-69
2021/11/05 03:11:48;;;;;;;0.60;0.50;;;7.30;99.90;;;;;;5249123;28;20276;-71
2021/11/05 03:14:22;;;;;;;0.40;0.40;;;7.20;99.90;;;;;;5233348;28;20193;-70
2021/11/05 03:16:55;;;;;;;0.60;0.50;;;7.20;99.90;;;;;;5250408;28;20204;-69
2021/11/05 03:19:29;;;;;;;1.73;0.47;;;7.20;99.90;;;;;;5249850;28;20270;-71
2021/11/05 03:22:04;;;;;;;0.40;0.40;;;7.20;99.90;;;;;;5231404;28;20211;-69
2021/11/05 03:24:36;;;;;;;0.60;0.40;;;7.20;99.90;;;;;;5231352;28;20231;-71
2021/11/05 03:27:08;;;;;;;0.60;0.30;;;7.20;99.90;;;;;;5234110;28;20216;-69
2021/11/05 03:29:43;;;;;;;0.97;0.40;;;7.20;99.90;;;;;;5249126;28;20248;-71
2021/11/05 03:32:18;;;;;;;0.30;0.30;;;7.10;99.90;;;;;;5253416;28;20215;-71
2021/11/05 03:34:52;;;;;;;0.40;0.37;;;7.10;99.90;;;;;;5235785;28;20208;-69
2021/11/05 03:37:25;;;;;;;0.33;0.30;;;7.10;99.90;;;;;;5253267;28;20227;-68
2021/11/05 03:39:57;;;;;;;0.67;0.33;;;7.10;99.90;;;;;;5251633;28;20213;-69
2021/11/05 03:42:29;;;;;;;0.47;0.30;;;7.10;99.90;;;;;;5252673;28;20215;-70
2021/11/05 03:45:02;;;;;;;0.30;0.30;;;7.10;99.90;;;;;;5252950;28;20189;-68
2021/11/05 03:47:34;;;;;;;0.30;0.30;;;7.10;99.90;;;;;;5252526;28;20209;-72
2021/11/05 03:50:06;;;;;;;0.40;0.40;;;7.10;99.90;;;;;;5252962;28;20224;-70
2021/11/05 03:52:43;;;;;;;0.67;0.30;;;7.10;99.90;;;;;;5252340;28;20204;-70
2021/11/05 03:55:16;;;;;;;0.40;0.40;;;7.10;99.90;;;;;;5252717;28;20208;-67
2021/11/05 03:57:50;;;;;;;0.43;0.33;;;7.00;99.90;;;;;;5235078;28;20291;-71
2021/11/05 04:00:22;;;;;;;2.40;0.50;;;7.10;99.90;;;;;;5251370;28;20236;-71
2021/11/05 04:02:54;;;;;;;0.30;0.20;;;7.10;99.90;;;;;;5252384;28;20588;-67
2021/11/05 04:05:26;;;;;;;0.20;0.20;;;7.10;99.90;;;;;;5252575;28;20307;-72
2021/11/05 04:07:58;;;;;;;0.20;0.20;;;7.10;99.90;;;;;;5251043;28;20215;-67
2021/11/05 04:10:32;;;;;;;0.93;0.50;;;7.00;99.90;;;;;;5251134;28;20193;-70
2021/11/05 04:13:07;;;;;;;0.20;0.20;;;7.00;99.90;;;;;;5251771;28;20608;-71
2021/11/05 04:15:40;;;;;;;1.43;0.40;;;7.10;99.90;;;;;;5251754;28;20207;-68
2021/11/05 04:18:12;;;;;;;0.20;0.20;;;7.10;99.90;;;;;;5251724;28;20205;-70
2021/11/05 04:20:44;;;;;;;1.43;0.20;;;7.10;99.90;;;;;;5250844;28;20229;-69
2021/11/05 04:23:17;;;;;;;0.33;0.20;;;7.10;99.90;;;;;;5251103;28;20200;-71
2021/11/05 04:25:49;;;;;;;1.40;0.60;;;7.10;99.90;;;;;;5234662;28;20196;-71
2021/11/05 04:28:22;;;;;;;1.63;0.63;;;7.10;99.90;;;;;;5250767;28;20243;-71
2021/11/05 04:30:54;;;;;;;0.53;0.53;;;7.10;99.90;;;;;;5252822;28;20220;-73
2021/11/05 04:33:27;;;;;;;0.50;0.50;;;7.10;99.90;;;;;;5254956;28;20208;-73
2021/11/05 04:36:03;;;;;;;0.40;0.40;;;7.10;99.90;;;;;;5268071;28;20228;-70
2021/11/05 04:38:35;;;;;;;0.43;0.40;;;7.20;99.90;;;;;;5251494;28;20214;-73
2021/11/05 04:41:07;;;;;;;1.80;0.40;;;7.20;99.90;;;;;;5251822;28;20215;-73
2021/11/05 04:43:40;;;;;;;0.60;0.50;;;7.20;99.90;;;;;;5250983;28;20525;-70
2021/11/05 04:46:12;;;;;;;0.40;0.40;;;7.20;99.90;;;;;;5251424;28;20201;-71
2021/11/05 04:48:44;;;;;;;1.33;1.23;;;7.20;99.90;;;;;;5251623;28;20650;-69
2021/11/05 04:51:19;;;;;;;0.80;0.53;;;7.30;99.90;;;;;;5251246;28;20209;-72
2021/11/05 04:53:51;;;;;;;1.53;0.80;;;7.30;99.90;;;;;;5267225;28;20216;-72
2021/11/05 04:56:26;;;;;;;0.87;0.70;;;7.30;99.90;;;;;;5251443;28;20232;-72
2021/11/05 04:58:58;;;;;;;2.07;1.00;;;7.30;99.90;;;;;;5250668;28;20224;-74
2021/11/05 05:01:33;;;;;;;1.53;1.07;;;7.40;99.90;;;;;;5252991;28;20541;-72
2021/11/05 05:04:05;;;;;;;1.83;1.10;;;7.40;99.90;;;;;;5251274;28;20204;-72
2021/11/05 05:06:37;;;;;;;1.60;1.20;;;7.40;99.90;;;;;;5250178;28;20200;-72
2021/11/05 05:09:12;;;;;;;1.27;1.07;;;7.40;99.90;;;;;;5251251;28;20240;-73
2021/11/05 05:11:46;;;;;;;1.97;1.23;;;7.50;99.90;;;;;;5249778;28;20200;-73
2021/11/05 05:14:19;;;;;;;2.77;1.80;;;7.50;99.90;;;;;;5250873;28;20208;-73
2021/11/05 05:16:51;;;;;;;2.60;1.83;;;7.60;99.90;;;;;;5250420;28;20547;-72
2021/11/05 05:19:23;;;;;;;2.30;1.90;;;7.60;99.90;;;;;;5249988;28;20235;-71
2021/11/05 05:21:55;;;;;;;3.07;2.00;;;7.70;99.90;;;;;;5251603;28;20555;-72
2021/11/05 05:24:27;;;;;;;2.13;1.70;;;7.70;99.90;;;;;;5250571;28;20216;-73
2021/11/05 05:27:01;;;;;;;3.07;1.83;;;7.60;99.90;;;;;;5250012;28;20200;-72
2021/11/05 05:29:34;;;;;;;1.83;1.37;;;7.60;99.90;;;;;;5250977;28;20240;-73
2021/11/05 05:32:09;;;;;;;2.27;1.50;;;7.70;99.90;;;;;;5254082;28;20205;-71
2021/11/05 05:34:41;;;;;;;2.97;1.87;;;7.70;99.90;;;;;;5233416;28;20575;-72
2021/11/05 05:37:13;;;;;;;2.07;1.60;;;7.70;99.90;;;;;;5233093;28;20707;-74
2021/11/05 05:39:45;;;;;;;3.23;1.97;;;7.70;99.90;;;;;;5249856;28;20220;-72
2021/11/05 05:42:18;;;;;;;3.27;2.20;;;7.70;99.90;;;;;;5250429;28;20577;-72
2021/11/05 05:44:50;;;;;;;2.57;1.80;;;7.60;99.90;;;;;;5250425;28;20205;-72
2021/11/05 05:47:25;;;;;;;2.57;1.83;;;7.70;99.90;;;;;;5250554;28;20211;-72
2021/11/05 05:49:58;;;;;;;1.93;1.60;;;7.70;99.90;;;;;;5249896;28;20193;-73
2021/11/05 05:52:30;;;;;;;2.77;2.00;;;7.70;99.90;;;;;;5266141;28;20209;-73
2021/11/05 05:55:05;;;;;;;3.33;2.70;;;7.70;99.90;;;;;;5249939;28;20204;-71
2021/11/05 05:57:39;;;;;;;2.77;2.40;;;7.70;99.90;;;;;;5250016;28;20236;-73
2021/11/05 06:00:14;;;;;;;4.17;2.83;;;7.70;99.90;;;;;;5252819;28;20224;-71
2021/11/05 06:02:46;;;;;;;3.63;2.70;;;7.70;99.90;;;;;;5233919;28;20619;-69
2021/11/05 06:05:18;;;;;;;5.27;2.70;;;7.70;99.90;;;;;;5232392;28;20216;-69
2021/11/05 06:07:51;;;;;;;3.83;3.27;;;7.70;99.90;;;;;;5250145;28;20224;-70
2021/11/05 06:10:25;;;;;;;6.13;3.70;;;7.70;99.90;;;;;;5250176;28;20212;-70
2021/11/05 06:12:57;;;;;;;4.93;3.77;;;7.70;99.90;;;;;;5250013;28;20196;-67
2021/11/05 06:15:30;;;;;;;6.70;4.23;;;7.70;99.90;;;;;;5250177;28;20526;-71
2021/11/05 06:18:03;;;;;;;7.27;4.47;;;7.80;99.90;;;;;;5232742;28;20572;-69
2021/11/05 06:20:35;;;;;;;6.10;4.50;;;7.80;99.90;;;;;;5250391;28;20231;-69
2021/11/05 06:23:08;;;;;;;7.50;5.03;;;7.80;99.90;;;;;;5249446;28;20686;-68
2021/11/05 06:25:40;;;;;;;7.53;5.17;;;7.90;99.90;;;;;;5231853;28;20205;-68
2021/11/05 06:28:12;;;;;;;7.17;5.53;;;7.90;99.90;;;;;;5216261;28;20246;-68
2021/11/05 06:30:44;;;;;;;8.63;5.73;;;7.90;99.90;;;;;;5165016;28;20207;-68
2021/11/05 06:33:18;;;;;;;7.37;5.43;;;7.90;99.90;;;;;;5166363;28;20239;-67
2021/11/05 06:35:52;;;;;;;7.30;5.10;;;7.90;99.90;;;;;;5179933;28;20627;-70
2021/11/05 06:38:25;;;;;;;8.37;5.20;;;7.90;99.90;;;;;;5164882;28;20834;-66
2021/11/05 06:40:57;;;;;;;6.47;5.10;;;7.90;99.90;;;;;;5179575;28;20220;-69
2021/11/05 06:43:29;;;;;;;8.23;5.17;;;7.80;99.90;;;;;;5164495;28;20231;-69
2021/11/05 06:46:02;;;;;;;6.50;5.07;;;7.80;99.90;;;;;;5164578;28;20203;-68
2021/11/05 06:48:34;;;;;;;8.43;5.40;;;7.90;99.90;;;;;;5164585;28;20234;-72
2021/11/05 06:51:06;;;;;;;7.90;5.33;;;7.90;99.90;;;;;;5164103;28;20208;-70
2021/11/05 06:53:38;;;;;;;8.40;5.93;;;7.90;99.90;;;;;;5164436;28;20235;-69
2021/11/05 06:56:10;;;;;;;7.83;5.80;;;7.90;99.90;;;;;;5179492;28;20302;-69
2021/11/05 06:58:44;;;;;;;8.97;5.30;;;7.90;99.90;;;;;;5179067;28;20310;-71
2021/11/05 07:01:18;;;;;;;9.70;5.70;;;7.90;99.90;;;;;;5164948;28;20223;-69
2021/11/05 07:03:51;;;;;;;9.97;5.27;;;7.90;99.90;;;;;;5168104;28;20226;-69
2021/11/05 07:06:23;;;;;;;6.63;4.97;;;7.90;99.90;;;;;;5183049;28;20264;-69
2021/11/05 07:08:55;;;;;;;7.73;5.37;;;8.00;99.90;;;;;;5167811;28;20227;-70
2021/11/05 07:11:27;;;;;;;9.67;5.73;;;8.00;99.90;;;;;;5167665;28;20217;-67
2021/11/05 07:13:59;;;;;;;10.97;5.80;;;8.00;99.90;;;;;;5182677;28;20239;-69
2021/11/05 07:16:34;;;;;;;9.17;5.40;;;8.10;99.90;;;;;;5182973;28;20535;-68
2021/11/05 07:19:09;;;;;;;7.67;4.80;;;8.10;99.90;;;;;;5167585;28;20226;-67
2021/11/05 07:21:41;;;;;;;8.93;4.50;;;8.10;99.90;;;;;;5167821;28;20203;-66
2021/11/05 07:24:13;;;;;;;6.07;4.03;;;8.20;99.90;;;;;;5235811;28;20231;-71
2021/11/05 07:26:49;;;;;;;7.90;4.50;;;8.20;99.90;;;;;;5168420;28;20200;-70
2021/11/05 07:29:28;;;;;;;7.90;4.63;;;8.30;99.90;;;;;;5234388;28;20249;-69
2021/11/05 07:32:02;;;;;;;6.67;4.47;;;8.40;99.90;;;;;;5168027;28;20207;-69
2021/11/05 07:34:37;;;;;;;11.63;4.60;;;8.50;99.90;;;;;;5234573;28;20226;-71
2021/11/05 07:37:15;;;;;;;6.00;4.30;;;8.60;99.90;;;;;;5167260;28;20293;-68
2021/11/05 07:39:48;;;;;;;7.80;4.23;;;8.70;99.90;;;;;;5233951;28;20258;-69
2021/11/05 07:42:22;;;;;;;5.27;3.87;;;8.80;99.90;;;;;;5234577;28;20211;-69
2021/11/05 07:44:54;;;;;;;5.80;3.90;;;8.90;99.90;;;;;;5233002;28;20237;-66
2021/11/05 07:47:26;;;;;;;5.67;3.50;;;8.90;99.90;;;;;;5182221;28;20208;-69
2021/11/05 07:50:00;;;;;;;4.70;2.97;;;8.90;99.90;;;;;;5182183;28;20240;-70
2021/11/05 07:52:32;;;;;;;4.20;3.10;;;8.90;99.90;;;;;;5167527;28;20527;-67
2021/11/05 07:55:07;;;;;;;3.97;3.13;;;9.00;99.90;;;;;;5167443;28;20231;-68
2021/11/05 07:57:39;;;;;;;4.70;2.77;;;8.90;99.90;;;;;;5170820;28;20553;-61
2021/11/05 08:00:15;;;;;;;6.50;3.07;;;9.00;99.90;;;;;;5183019;28;20246;-69
2021/11/05 08:02:51;;;;;;;5.47;3.03;;;8.90;99.90;;;;;;5166254;28;20195;-68
2021/11/05 08:05:23;;;;;;;6.53;2.43;;;9.00;99.90;;;;;;5231484;28;20585;-73
2021/11/05 08:07:55;;;;;;;3.27;2.10;;;9.00;99.90;;;;;;5227823;28;20511;-68
2021/11/05 08:10:27;;;;;;;4.33;1.83;;;9.00;99.90;;;;;;5256072;28;20292;-69
2021/11/05 08:12:59;;;;;;;2.33;1.83;;;9.00;99.90;;;;;;5172095;28;20535;-67
2021/11/05 08:15:31;;;;;;;4.73;1.70;;;9.00;99.90;;;;;;5167171;28;20271;-73
2021/11/05 08:18:06;;;;;;;3.63;1.83;;;9.10;99.90;;;;;;5167085;28;20619;-67
2021/11/05 08:20:38;;;;;;;4.63;1.57;;;9.10;99.90;;;;;;5232599;28;20288;-67
2021/11/05 08:23:13;;;;;;;4.73;1.60;;;9.00;99.90;;;;;;5167446;28;20199;-67
2021/11/05 08:25:47;;;;;;;2.87;1.70;;;9.00;99.90;;;;;;5167001;28;20223;-71
2021/11/05 08:28:21;;;;;;;4.50;1.47;;;9.00;99.90;;;;;;5198755;28;20235;-68
2021/11/05 08:30:53;;;;;;;2.87;1.40;;;9.00;99.90;;;;;;5238769;28;20233;-68
2021/11/05 08:33:26;;;;;;;3.33;1.50;;;9.00;99.90;;;;;;5236837;28;20201;-67
2021/11/05 08:35:58;;;;;;;2.57;1.63;;;9.00;99.90;;;;;;5242081;28;20738;-67
2021/11/05 08:38:30;;;;;;;3.33;1.90;;;8.90;99.90;;;;;;5231032;28;20215;-72
2021/11/05 08:41:03;;;;;;;2.53;1.93;;;9.00;99.90;;;;;;5233686;28;20240;-69
2021/11/05 08:43:38;;;;;;;3.63;1.63;;;8.90;99.90;;;;;;5251577;28;20621;-70
2021/11/05 08:46:10;;;;;;;3.77;2.07;;;8.90;99.90;;;;;;5251662;28;20572;-68
2021/11/05 08:49:09;;;;;;;2.77;1.83;;;9.00;99.90;;;;;;5237071;28;20200;-69
2021/11/05 08:51:44;;;;;;;3.80;1.53;;;8.90;99.90;;;;;;5251673;28;20263;-71
2021/11/05 08:54:16;;;;;;;3.10;1.70;;;8.90;99.90;;;;;;5234525;28;20204;-64
2021/11/05 08:56:49;;;;;;;3.30;2.00;;;9.00;99.90;;;;;;5240868;28;20270;-67
2021/11/05 08:59:24;;;;;;;4.57;1.70;;;9.00;99.90;;;;;;5234474;28;20291;-66
2021/11/05 09:01:58;;;;;;;2.63;1.60;;;9.00;99.90;;;;;;5251208;28;20319;-68
2021/11/05 09:04:32;;;;;;;2.70;1.40;;;9.10;99.90;;;;;;5247877;28;20205;-68
2021/11/05 09:07:04;;;;;;;3.73;1.70;;;9.10;99.90;;;;;;5238307;28;20265;-66
2021/11/05 09:09:36;;;;;;;4.23;1.40;;;9.20;99.90;;;;;;5250025;28;20188;-65
2021/11/05 09:12:08;;;;;;;5.03;1.53;;;9.10;99.90;;;;;;5256824;28;20204;-70
2021/11/05 09:14:40;;;;;;;2.83;1.17;;;9.10;99.90;;;;;;5254107;28;20200;-70
2021/11/05 09:17:17;;;;;;;4.03;1.40;;;9.10;99.90;;;;;;5236321;28;20600;-67
2021/11/05 09:19:51;;;;;;;3.50;1.23;;;9.10;99.90;;;;;;5233147;28;20189;-68
2021/11/05 09:22:26;;;;;;;2.63;1.33;;;9.10;99.90;;;;;;5250448;28;20220;-69
2021/11/05 09:24:58;;;;;;;6.33;1.40;;;9.10;99.90;;;;;;5250212;28;20612;-69
2021/11/05 09:27:30;;;;;;;5.13;1.90;;;9.10;99.90;;;;;;5233260;28;20239;-67
2021/11/05 09:30:06;;;;;;;4.90;1.30;;;9.00;99.90;;;;;;5145397;28;20204;-69
2021/11/05 09:32:38;;;;;;;2.63;1.10;;;9.00;99.90;;;;;;5145445;28;20218;-69
2021/11/05 09:35:13;;;;;;;2.57;1.23;;;8.90;99.90;;;;;;5144153;28;20257;-68
2021/11/05 09:37:46;;;;;;;2.80;1.40;;;8.90;99.90;;;;;;5129415;28;20247;-72
2021/11/05 09:40:23;;;;;;;3.43;1.67;;;8.80;99.90;;;;;;5149782;28;20216;-69
2021/11/05 09:42:58;;;;;;;3.57;2.03;;;8.80;99.90;;;;;;5145489;28;20219;-71
2021/11/05 09:45:31;;;;;;;4.93;2.50;;;8.80;99.90;;;;;;5145213;28;20203;-67
2021/11/05 09:48:04;;;;;;;7.90;2.60;;;8.80;99.90;;;;;;5145374;28;20207;-67
2021/11/05 09:50:38;;;;;;;2.90;2.03;;;8.80;99.90;;;;;;5144396;28;20204;-66
2021/11/05 09:53:12;;;;;;;3.27;1.57;;;8.90;99.90;;;;;;5127274;28;20702;-65
2021/11/05 09:55:49;;;;;;;2.60;1.60;;;8.90;99.90;;;;;;5144370;28;20195;-65
2021/11/05 09:58:21;;;;;;;2.83;1.50;;;8.80;99.90;;;;;;5172879;28;20211;-68
2021/11/05 10:00:53;;;;;;;2.53;1.50;;;8.80;99.90;;;;;;5150574;28;20235;-68
2021/11/05 10:03:27;;;;;;;2.57;1.30;;;8.80;99.90;;;;;;5162985;28;20653;-68
2021/11/05 10:06:00;;;;;;;2.83;1.50;;;8.80;99.90;;;;;;5150834;28;20691;-70
2021/11/05 10:08:36;;;;;;;4.77;2.30;;;8.70;99.90;;;;;;5125010;28;20211;-67
2021/11/05 10:11:28;;;;;;;4.20;2.27;;;8.70;99.90;;;;;;5152539;28;20244;-67
2021/11/05 10:14:02;;;;;;;3.43;1.63;;;8.70;99.90;;;;;;5144976;28;20215;-68
2021/11/05 10:16:36;;;;;;;5.57;1.80;;;8.70;99.90;;;;;;5144783;28;20234;-71
2021/11/05 10:19:18;;;;;;;4.17;1.40;;;8.70;99.90;;;;;;5223170;28;20212;-65
2021/11/05 10:21:53;;;;;;;3.30;1.20;;;8.60;99.90;;;;;;5144992;28;20216;-67
2021/11/05 10:24:26;;;;;;;3.23;1.43;;;8.60;99.90;;;;;;5143696;28;20505;-67
2021/11/05 10:27:01;;;;;;;3.23;1.50;;;8.60;99.90;;;;;;5155555;28;20210;-69
2021/11/05 10:29:33;;;;;;;3.23;1.60;;;8.50;99.90;;;;;;5216094;28;20247;-71
2021/11/05 10:32:08;;;;;;;3.00;2.00;;;8.50;99.90;;;;;;5164965;28;20218;-67
2021/11/05 10:34:51;;;;;;;4.37;2.50;;;8.50;99.90;;;;;;5175426;28;20206;-70
2021/11/05 10:37:29;;;;;;;4.57;2.00;;;8.40;99.90;;;;;;5166529;28;20592;-69
2021/11/05 10:40:02;;;;;;;3.90;2.20;;;8.40;99.90;;;;;;5167976;28;20202;-70
2021/11/05 10:42:47;;;;;;;4.57;2.27;;;8.40;99.90;;;;;;5248477;28;20234;-69
2021/11/05 10:45:25;;;;;;;4.27;1.83;;;8.40;99.90;;;;;;5166655;28;20211;-71
2021/11/05 10:48:04;;;;;;;4.70;2.40;;;8.40;99.90;;;;;;5231340;28;20224;-69
2021/11/05 10:50:49;;;;;;;4.47;2.07;;;8.40;99.90;;;;;;5164595;28;20204;-69
2021/11/05 10:53:26;;;;;;;3.57;2.20;;;8.40;99.90;;;;;;5164408;28;20492;-65
2021/11/05 10:56:07;;;;;;;7.07;2.70;;;8.40;99.90;;;;;;5260080;28;20198;-67
2021/11/05 10:58:41;;;;;;;5.83;1.93;;;8.30;99.90;;;;;;5173508;28;20206;-65
2021/11/05 11:01:16;;;;;;;4.43;2.10;;;8.30;99.90;;;;;;5173149;28;20222;-68
2021/11/05 11:03:56;;;;;;;4.83;2.57;;;8.30;99.90;;;;;;5184371;28;20194;-66
2021/11/05 11:06:47;;;;;;;6.10;2.30;;;8.30;99.90;;;;;;5185108;28;20187;-66
2021/11/05 11:09:23;;;;;;;4.13;2.50;;;8.30;99.90;;;;;;5182481;28;20207;-66
2021/11/05 11:11:58;;;;;;;6.37;2.80;;;8.30;99.90;;;;;;5164048;28;20556;-68
2021/11/05 11:14:31;;;;;;;4.00;2.47;;;8.30;99.90;;;;;;5163848;28;20215;-69
2021/11/05 11:17:06;;;;;;;4.40;2.70;;;8.30;99.90;;;;;;5231093;28;20222;-64
2021/11/05 11:19:44;;;;;;;5.50;2.73;;;8.40;99.90;;;;;;5194683;28;20208;-69
2021/11/05 11:22:16;;;;;;;4.67;2.53;;;8.40;99.90;;;;;;5153221;28;20235;-67
2021/11/05 11:24:50;;;;;;;5.53;2.90;;;8.40;99.90;;;;;;5163749;28;20203;-67
2021/11/05 11:27:23;;;;;;;4.13;2.73;;;8.40;99.90;;;;;;5214676;28;20207;-65
2021/11/05 11:29:58;;;;;;;4.53;2.80;;;8.50;99.90;;;;;;5246227;28;20224;-69
2021/11/05 11:32:30;;;;;;;4.10;2.50;;;8.50;99.90;;;;;;5249708;28;20228;-66
2021/11/05 11:35:05;;;;;;;3.67;2.10;;;8.50;99.90;;;;;;5231015;28;20205;-67
2021/11/05 11:37:38;;;;;;;5.30;2.83;;;8.50;99.90;;;;;;5249115;28;20643;-66
2021/11/05 11:40:11;;;;;;;6.27;2.90;;;8.50;99.90;;;;;;5231330;28;20544;-68
2021/11/05 11:42:47;;;;;;;4.47;2.50;;;8.40;99.90;;;;;;5231259;28;20632;-71
2021/11/05 11:45:19;;;;;;;4.50;2.43;;;8.30;99.90;;;;;;5248773;28;20224;-67
2021/11/05 11:47:55;;;;;;;5.10;2.70;;;8.30;99.90;;;;;;5250501;28;20244;-70
2021/11/05 11:50:33;;;;;;;6.53;2.70;;;8.20;99.90;;;;;;5235400;28;20220;-68
2021/11/05 11:53:10;;;;;;;6.90;3.10;;;8.10;99.90;;;;;;5252348;28;20211;-70
2021/11/05 11:55:58;;;;;;;6.60;3.03;;;8.10;99.90;;;;;;5263501;28;20221;-67
2021/11/05 11:58:30;;;;;;;7.13;3.43;;;8.10;99.90;;;;;;5266211;28;20207;-71
2021/11/05 12:01:24;;;;;;;5.57;3.43;;;8.00;99.90;;;;;;5252772;28;20220;-68
2021/11/05 12:04:06;;;;;;;5.57;3.20;;;8.00;99.90;;;;;;5253371;28;20663;-70
2021/11/05 12:06:51;;;;;;;5.97;3.17;;;8.00;99.90;;;;;;5234730;28;20181;-68
2021/11/05 12:09:24;;;;;;;10.03;3.47;;;8.00;99.90;;;;;;5235144;28;20196;-68
2021/11/05 12:12:21;;;;;;;5.47;3.40;;;8.00;99.90;;;;;;5269703;28;20592;-67
2021/11/05 12:15:02;;;;;;;5.63;3.20;;;8.00;99.90;;;;;;5252280;28;20550;-68
2021/11/05 12:17:49;;;;;;;7.27;3.43;;;8.00;99.90;;;;;;5235050;28;20220;-67
2021/11/05 12:20:38;;;;;;;6.63;3.33;;;8.00;99.90;;;;;;5268596;28;20231;-70
2021/11/05 12:23:10;;;;;;;6.32;3.28;;;7.90;99.90;;;;;;5237467;28;20421;-66
2021/11/05 12:25:51;;;;;;;5.03;3.23;;;7.90;99.90;;;;;;5234939;28;20506;-62
2021/11/05 12:28:43;;;;;;;5.93;2.30;;;7.90;99.90;;;;;;5258915;28;20356;-67
2021/11/05 12:31:30;;;;;;;4.33;2.30;;;7.80;99.90;;;;;;5264333;28;20644;-63
2021/11/05 12:34:36;;;;;;;8.07;2.87;;;7.80;99.90;;;;;;5251769;28;20203;-65
2021/11/05 12:37:08;;;;;;;7.00;2.80;;;7.80;99.90;;;;;;5251453;28;20232;-68
2021/11/05 12:39:43;;;;;;;4.17;2.57;;;7.80;99.90;;;;;;5251336;28;20227;-74
2021/11/05 12:42:16;;;;;;;6.03;2.60;;;7.70;99.90;;;;;;5251862;28;20228;-68
2021/11/05 12:44:58;;;;;;;4.80;2.50;;;7.70;99.90;;;;;;5250841;28;20215;-66
2021/11/05 12:47:53;;;;;;;5.70;2.50;;;7.70;99.90;;;;;;5234113;28;20225;-66
2021/11/05 12:50:27;;;;;;;3.47;2.20;;;7.60;99.90;;;;;;5253445;28;20205;-67
2021/11/05 12:53:08;;;;;;;4.80;2.40;;;7.60;99.90;;;;;;5272232;28;20219;-65
2021/11/05 12:55:43;;;;;;;2.80;1.90;;;7.60;99.90;;;;;;5273442;28;20196;-65
2021/11/05 12:58:17;;;;;;;5.77;2.43;;;7.60;99.90;;;;;;5254523;28;20313;-69
2021/11/05 13:01:14;;;;;;;6.60;2.70;;;7.60;99.90;;;;;;5230243;28;20240;-67
2021/11/05 13:03:46;;;;;;;3.87;2.27;;;7.70;99.90;;;;;;5242231;28;20220;-68
2021/11/05 13:06:40;;;;;;;4.37;2.10;;;7.70;99.90;;;;;;5259354;28;20299;-67
2021/11/05 13:09:42;;;;;;;3.73;2.23;;;7.70;99.90;;;;;;5254442;28;20225;-67
2021/11/05 13:12:19;;;;;;;3.50;2.37;;;7.70;99.90;;;;;;5250433;28;20201;-65
2021/11/05 13:15:03;;;;;;;3.50;2.50;;;7.70;99.90;;;;;;5233830;28;20621;-68
2021/11/05 13:17:40;;;;;;;6.43;2.53;;;7.70;99.90;;;;;;5250975;28;20197;-67
2021/11/05 13:20:21;;;;;;;4.50;2.30;;;7.70;99.90;;;;;;5246974;28;20207;-63
2021/11/05 13:22:54;;;;;;;5.00;2.87;;;7.60;99.90;;;;;;5271488;28;20224;-66
2021/11/05 13:25:30;;;;;;;8.00;2.70;;;7.60;99.90;;;;;;5271834;28;20222;-68
2021/11/05 13:28:14;;;;;;;5.17;3.10;;;7.60;99.90;;;;;;5269394;28;20659;-67
2021/11/05 13:30:51;;;;;;;4.70;2.87;;;7.60;99.90;;;;;;5251423;28;20201;-65
2021/11/05 13:33:29;;;;;;;5.17;2.60;;;7.60;99.90;;;;;;5249699;28;20211;-65
2021/11/05 13:36:03;;;;;;;5.03;2.87;;;7.60;99.90;;;;;;5249991;28;20510;-66
2021/11/05 13:38:52;;;;;;;7.47;3.13;;;7.60;99.90;;;;;;5250293;28;20192;-66